Egmondgracht — PDWG — position and weather

sailwx.info

Track history (hours):
 
Tides and Currents Weather Stations Pressure Air Temp Water Temp Dewpoint Dewpoint Depression Visibility Wind Speed Wind Dir Waves Ship Positions

Egmondgracht

Last reported at 2017-Nov-05 23:42 UTC. Time now 2017-Nov-22 18:27 UTC.
Position N 43°24' E 036°07'.
Warning: this ship's position is 16 days out of date.

Length 136 m; beam 19 m; draft 9 m.

Type: Cargo ship. MMSI: 245716000.

Date/timePositionNaut miles runAvg speedWind from/ knotsBaromVisibWave heightAir tempDewpointWater temp
2017-Nov-05 23:42N 43°24' E 036°07'  
2017-Nov-03 05:26N 42°58' E 032°18'613.8
2017-Nov-03 05:00N 42°57' E 032°10'713.7
2017-Nov-03 04:30N 42°55' E 032°01'713.6
2017-Nov-03 04:00N 42°54' E 031°51'2313.6
2017-Nov-03 02:16N 42°50' E 031°20'513.9
2017-Nov-03 01:54N 42°50' E 031°13'  
2017-Oct-28 00:33N 42°38' E 029°04'313.9
2017-Oct-28 00:22N 42°38' E 029°08'514.0
2017-Oct-28 00:00N 42°39' E 029°14'  
Track history (hours):
 
Tides and Currents Weather Stations Pressure Air Temp Water Temp Dewpoint Dewpoint Depression Visibility Wind Speed Wind Dir Waves Ship Positions

Egmondgracht

Last reported at 2017-Nov-05 23:42 UTC. Time now 2017-Nov-22 18:27 UTC.
Position N 43°24' E 036°07'.
Warning: this ship's position is 16 days out of date.

Length 136 m; beam 19 m; draft 9 m.

Type: Cargo ship. MMSI: 245716000.

Date/timePositionNaut miles runAvg speedWind from/ knotsBaromVisibWave heightAir tempDewpointWater temp
2017-Nov-05 23:42N 43°24' E 036°07'  
2017-Nov-03 05:26N 42°58' E 032°18'613.8
2017-Nov-03 05:00N 42°57' E 032°10'713.7
2017-Nov-03 04:30N 42°55' E 032°01'713.6
2017-Nov-03 04:00N 42°54' E 031°51'2313.6
2017-Nov-03 02:16N 42°50' E 031°20'513.9
2017-Nov-03 01:54N 42°50' E 031°13'  
2017-Oct-28 00:33N 42°38' E 029°04'313.9
2017-Oct-28 00:22N 42°38' E 029°08'514.0
2017-Oct-28 00:00N 42°39' E 029°14'  

Dump ship's entire track history